JBU1483 KJFK-KMCO
Flight info
| Callsign | JBU1483 |
|---|---|
| Flight time | 2h 20m |
| Altitude | 36000 |
| Route | WAVEY EMJAY Q167 ZJAAY Q97 SAWED MOXXY Q85 LPERD GTOUT1 |
| Aircraft | A321/M-SDE3FGHIRWY/LB1 |
Departure
| Time | 2026-05-07 04:57 |
|---|---|
| Airport | John F. Kennedy International Airport (KJFK) |
Arrival
| Time | 2026-05-07 07:17 |
|---|---|
| Airport | Orlando International Airport (KMCO) |
| Time | Latitude | Longitude | Altitude | Speed | Heading |
|---|---|---|---|---|---|
| 2026-05-07 04:23 | 40.64534 | -73.77237 | 23 ft | 0 kts | 0° |
| 2026-05-07 04:46 | 40.64529 | -73.77238 | 23 ft | 3 kts | 1° |
| 2026-05-07 04:46 | 40.64505 | -73.77238 | 24 ft | 3 kts | 347° |
| 2026-05-07 04:46 | 40.64490 | -73.77228 | 25 ft | 3 kts | 316° |
| 2026-05-07 04:46 | 40.64478 | -73.77215 | 24 ft | 3 kts | 28° |
| 2026-05-07 04:47 | 40.64473 | -73.77231 | 25 ft | 3 kts | 90° |
| 2026-05-07 04:47 | 40.64473 | -73.77257 | 26 ft | 0 kts | 90° |
| 2026-05-07 04:50 | 40.64473 | -73.77256 | 26 ft | 0 kts | 90° |
| 2026-05-07 04:50 | 40.64473 | -73.77249 | 25 ft | 1 kts | 91° |
| 2026-05-07 04:50 | 40.64470 | -73.77234 | 24 ft | 3 kts | 108° |
| 2026-05-07 04:51 | 40.64456 | -73.77199 | 23 ft | 5 kts | 117° |
| 2026-05-07 04:51 | 40.64441 | -73.77143 | 23 ft | 8 kts | 104° |
| 2026-05-07 04:51 | 40.64426 | -73.77061 | 22 ft | 11 kts | 104° |
| 2026-05-07 04:51 | 40.64401 | -73.76955 | 21 ft | 13 kts | 119° |
| 2026-05-07 04:52 | 40.64326 | -73.76889 | 21 ft | 14 kts | 164° |
| 2026-05-07 04:52 | 40.64229 | -73.76885 | 21 ft | 14 kts | 182° |
| 2026-05-07 04:52 | 40.64134 | -73.76895 | 23 ft | 13 kts | 186° |
| 2026-05-07 04:52 | 40.64046 | -73.76908 | 25 ft | 12 kts | 185° |
| 2026-05-07 04:53 | 40.63964 | -73.76912 | 27 ft | 12 kts | 181° |
| 2026-05-07 04:53 | 40.63880 | -73.76913 | 27 ft | 13 kts | 180° |
| 2026-05-07 04:53 | 40.63785 | -73.76915 | 29 ft | 15 kts | 181° |
| 2026-05-07 04:53 | 40.63675 | -73.76917 | 27 ft | 16 kts | 181° |
| 2026-05-07 04:54 | 40.63560 | -73.76919 | 26 ft | 15 kts | 181° |
| 2026-05-07 04:54 | 40.63454 | -73.76925 | 23 ft | 16 kts | 189° |
| 2026-05-07 04:54 | 40.63335 | -73.76941 | 21 ft | 18 kts | 191° |
| 2026-05-07 04:54 | 40.63229 | -73.76947 | 22 ft | 14 kts | 181° |
| 2026-05-07 04:55 | 40.63127 | -73.76959 | 22 ft | 16 kts | 195° |
| 2026-05-07 04:55 | 40.63027 | -73.77024 | 21 ft | 14 kts | 210° |
| 2026-05-07 04:55 | 40.62954 | -73.77081 | 25 ft | 12 kts | 210° |
| 2026-05-07 04:55 | 40.62886 | -73.77134 | 24 ft | 12 kts | 210° |
| 2026-05-07 04:56 | 40.62830 | -73.77177 | 24 ft | 9 kts | 212° |
| 2026-05-07 04:56 | 40.62820 | -73.77221 | 24 ft | 5 kts | 288° |
| 2026-05-07 04:56 | 40.62854 | -73.77296 | 25 ft | 27 kts | 301° |
| 2026-05-07 04:56 | 40.63083 | -73.77799 | 29 ft | 99 kts | 300° |
| 2026-05-07 04:57 | 40.63539 | -73.78805 | 28 ft | 154 kts | 301° |
| 2026-05-07 04:57 | 40.64104 | -73.80064 | 582 ft | 158 kts | 304° |
| 2026-05-07 04:57 | 40.64456 | -73.81419 | 1307 ft | 161 kts | 272° |
| 2026-05-07 04:57 | 40.64026 | -73.82877 | 1721 ft | 189 kts | 233° |
| 2026-05-07 04:58 | 40.63067 | -73.84143 | 2012 ft | 206 kts | 230° |
| 2026-05-07 04:58 | 40.62056 | -73.85530 | 2520 ft | 212 kts | 229° |
| 2026-05-07 04:58 | 40.61054 | -73.86929 | 3279 ft | 209 kts | 228° |
| 2026-05-07 04:58 | 40.59822 | -73.87952 | 3990 ft | 214 kts | 202° |
| 2026-05-07 04:59 | 40.58312 | -73.88100 | 4584 ft | 231 kts | 176° |
| 2026-05-07 04:59 | 40.56681 | -73.87349 | 4840 ft | 262 kts | 164° |
| 2026-05-07 04:59 | 40.54977 | -73.86385 | 5447 ft | 270 kts | 165° |
| 2026-05-07 04:59 | 40.53190 | -73.85665 | 6209 ft | 266 kts | 178° |
| 2026-05-07 05:00 | 40.51364 | -73.85351 | 6954 ft | 265 kts | 182° |
| 2026-05-07 05:00 | 40.49533 | -73.84804 | 7681 ft | 279 kts | 167° |
| 2026-05-07 05:00 | 40.47811 | -73.83495 | 8419 ft | 296 kts | 149° |
| 2026-05-07 05:00 | 40.46409 | -73.81421 | 9145 ft | 311 kts | 133° |
| 2026-05-07 05:01 | 40.45155 | -73.79092 | 9881 ft | 314 kts | 134° |
| 2026-05-07 05:01 | 40.43868 | -73.76720 | 10318 ft | 329 kts | 134° |
| 2026-05-07 05:01 | 40.42484 | -73.74196 | 10465 ft | 352 kts | 133° |
| 2026-05-07 05:01 | 40.41031 | -73.71554 | 10589 ft | 374 kts | 133° |
| 2026-05-07 05:02 | 40.39482 | -73.68728 | 10965 ft | 384 kts | 132° |
| 2026-05-07 05:02 | 40.37918 | -73.65853 | 11547 ft | 390 kts | 132° |
| 2026-05-07 05:02 | 40.36334 | -73.62932 | 12133 ft | 395 kts | 132° |
| 2026-05-07 05:02 | 40.34728 | -73.59975 | 12746 ft | 400 kts | 132° |
| 2026-05-07 05:03 | 40.33099 | -73.56991 | 13357 ft | 405 kts | 132° |
| 2026-05-07 05:03 | 40.31451 | -73.53981 | 13940 ft | 409 kts | 132° |
| 2026-05-07 05:03 | 40.29777 | -73.50933 | 14496 ft | 413 kts | 132° |
| 2026-05-07 05:03 | 40.28116 | -73.47917 | 15069 ft | 417 kts | 132° |
| 2026-05-07 05:04 | 40.26406 | -73.44817 | 15654 ft | 420 kts | 132° |
| 2026-05-07 05:04 | 40.24673 | -73.41718 | 16238 ft | 422 kts | 135° |
| 2026-05-07 05:04 | 40.22699 | -73.38919 | 16799 ft | 417 kts | 145° |
| 2026-05-07 05:04 | 40.20432 | -73.36566 | 17371 ft | 414 kts | 152° |
| 2026-05-07 05:05 | 40.18076 | -73.34376 | 17946 ft | 417 kts | 152° |
| 2026-05-07 05:05 | 40.15665 | -73.32290 | 18465 ft | 414 kts | 160° |
| 2026-05-07 05:05 | 40.13026 | -73.30907 | 18912 ft | 403 kts | 174° |
| 2026-05-07 05:05 | 40.10296 | -73.30382 | 19355 ft | 393 kts | 187° |
| 2026-05-07 05:06 | 40.07605 | -73.30685 | 19818 ft | 384 kts | 200° |
| 2026-05-07 05:06 | 40.05109 | -73.31727 | 20297 ft | 375 kts | 212° |
| 2026-05-07 05:06 | 40.02869 | -73.33430 | 20792 ft | 367 kts | 223° |
| 2026-05-07 05:06 | 40.00935 | -73.35560 | 21291 ft | 365 kts | 227° |
| 2026-05-07 05:07 | 39.99011 | -73.37729 | 21803 ft | 367 kts | 227° |
| 2026-05-07 05:07 | 39.97065 | -73.39900 | 22319 ft | 367 kts | 227° |
| 2026-05-07 05:07 | 39.95132 | -73.42051 | 22810 ft | 368 kts | 227° |
| 2026-05-07 05:07 | 39.93171 | -73.44236 | 23263 ft | 369 kts | 227° |
| 2026-05-07 05:08 | 39.91208 | -73.46423 | 23633 ft | 373 kts | 227° |
| 2026-05-07 05:08 | 39.89231 | -73.48625 | 23990 ft | 375 kts | 227° |
| 2026-05-07 05:08 | 39.87254 | -73.50824 | 24363 ft | 376 kts | 227° |
| 2026-05-07 05:08 | 39.85247 | -73.53055 | 24752 ft | 378 kts | 227° |
| 2026-05-07 05:09 | 39.83247 | -73.55278 | 25129 ft | 379 kts | 227° |
| 2026-05-07 05:09 | 39.81237 | -73.57513 | 25506 ft | 380 kts | 227° |
| 2026-05-07 05:09 | 39.79260 | -73.59715 | 25874 ft | 381 kts | 228° |
| 2026-05-07 05:09 | 39.77237 | -73.61972 | 26240 ft | 382 kts | 228° |
| 2026-05-07 05:10 | 39.75196 | -73.64247 | 26590 ft | 384 kts | 228° |
| 2026-05-07 05:10 | 39.73160 | -73.66509 | 26914 ft | 385 kts | 227° |
| 2026-05-07 05:10 | 39.71105 | -73.68789 | 27246 ft | 387 kts | 227° |
| 2026-05-07 05:10 | 39.69056 | -73.71061 | 27577 ft | 389 kts | 227° |
| 2026-05-07 05:11 | 39.67021 | -73.73315 | 27927 ft | 390 kts | 227° |
| 2026-05-07 05:11 | 39.64955 | -73.75604 | 28270 ft | 392 kts | 227° |
| 2026-05-07 05:11 | 39.62874 | -73.77906 | 28611 ft | 393 kts | 227° |
| 2026-05-07 05:11 | 39.60796 | -73.80201 | 29059 ft | 391 kts | 227° |
| 2026-05-07 05:12 | 39.58726 | -73.82476 | 29526 ft | 389 kts | 227° |
| 2026-05-07 05:12 | 39.56662 | -73.84744 | 29991 ft | 387 kts | 228° |
| 2026-05-07 05:12 | 39.54614 | -73.86993 | 30403 ft | 385 kts | 228° |
| 2026-05-07 05:12 | 39.52576 | -73.89234 | 30800 ft | 383 kts | 229° |
| 2026-05-07 05:13 | 39.50553 | -73.91466 | 31202 ft | 380 kts | 229° |
| 2026-05-07 05:13 | 39.48548 | -73.93680 | 31593 ft | 378 kts | 229° |
| 2026-05-07 05:13 | 39.46556 | -73.95878 | 32005 ft | 376 kts | 230° |
| 2026-05-07 05:13 | 39.44566 | -73.98067 | 32404 ft | 374 kts | 230° |
| 2026-05-07 05:14 | 39.42589 | -74.00236 | 32796 ft | 371 kts | 230° |
| 2026-05-07 05:14 | 39.40622 | -74.02388 | 33215 ft | 369 kts | 230° |
| 2026-05-07 05:14 | 39.38672 | -74.04516 | 33633 ft | 366 kts | 230° |
| 2026-05-07 05:14 | 39.36723 | -74.06640 | 33961 ft | 364 kts | 230° |
| 2026-05-07 05:15 | 39.34807 | -74.08731 | 34224 ft | 364 kts | 231° |
| 2026-05-07 05:15 | 39.32885 | -74.10833 | 34471 ft | 364 kts | 231° |
| 2026-05-07 05:15 | 39.30955 | -74.12943 | 34745 ft | 363 kts | 231° |
| 2026-05-07 05:15 | 39.29024 | -74.15050 | 35044 ft | 362 kts | 232° |
| 2026-05-07 05:16 | 39.27104 | -74.17142 | 35323 ft | 362 kts | 232° |
| 2026-05-07 05:16 | 39.25188 | -74.19233 | 35606 ft | 361 kts | 232° |
| 2026-05-07 05:16 | 39.23268 | -74.21329 | 35827 ft | 361 kts | 232° |
| 2026-05-07 05:16 | 39.21351 | -74.23416 | 35887 ft | 360 kts | 232° |
| 2026-05-07 05:17 | 39.17523 | -74.27570 | 35848 ft | 359 kts | 233° |
| 2026-05-07 05:17 | 39.13677 | -74.31745 | 35893 ft | 363 kts | 232° |
| 2026-05-07 05:18 | 39.09803 | -74.35925 | 35893 ft | 364 kts | 232° |
| 2026-05-07 05:18 | 39.05932 | -74.40094 | 35897 ft | 362 kts | 232° |
| 2026-05-07 05:19 | 39.02072 | -74.44267 | 35902 ft | 362 kts | 232° |
| 2026-05-07 05:19 | 38.98210 | -74.48439 | 35870 ft | 363 kts | 232° |
| 2026-05-07 05:20 | 38.94334 | -74.52611 | 35895 ft | 364 kts | 232° |
| 2026-05-07 05:20 | 38.90574 | -74.56854 | 35902 ft | 361 kts | 234° |
| 2026-05-07 05:21 | 38.85050 | -74.63424 | 35898 ft | 361 kts | 234° |
| 2026-05-07 05:22 | 38.81349 | -74.67798 | 35910 ft | 362 kts | 234° |
| 2026-05-07 05:22 | 38.77626 | -74.72148 | 35859 ft | 362 kts | 234° |
| 2026-05-07 05:23 | 38.73869 | -74.76476 | 35872 ft | 365 kts | 233° |
| 2026-05-07 05:23 | 38.69916 | -74.80633 | 35887 ft | 369 kts | 231° |
| 2026-05-07 05:24 | 38.65893 | -74.84717 | 35890 ft | 369 kts | 231° |
| 2026-05-07 05:24 | 38.62573 | -74.88120 | 35897 ft | 369 kts | 231° |
| 2026-05-07 05:25 | 38.57928 | -74.92937 | 35886 ft | 369 kts | 232° |
| 2026-05-07 05:25 | 38.53953 | -74.97084 | 35892 ft | 369 kts | 232° |
| 2026-05-07 05:26 | 38.50014 | -75.01300 | 35916 ft | 368 kts | 233° |
| 2026-05-07 05:26 | 38.46171 | -75.05587 | 35926 ft | 369 kts | 232° |
| 2026-05-07 05:27 | 38.42085 | -75.09661 | 35938 ft | 374 kts | 229° |
| 2026-05-07 05:27 | 38.37880 | -75.13558 | 35893 ft | 374 kts | 229° |
| 2026-05-07 05:28 | 38.33700 | -75.17438 | 35901 ft | 374 kts | 229° |
| 2026-05-07 05:28 | 38.30207 | -75.20738 | 35904 ft | 374 kts | 230° |
| 2026-05-07 05:29 | 38.25352 | -75.25345 | 35911 ft | 374 kts | 230° |
| 2026-05-07 05:29 | 38.21839 | -75.28679 | 35915 ft | 375 kts | 230° |
| 2026-05-07 05:30 | 38.17700 | -75.32590 | 35891 ft | 375 kts | 229° |
| 2026-05-07 05:30 | 38.13485 | -75.36562 | 35892 ft | 376 kts | 229° |
| 2026-05-07 05:31 | 38.09275 | -75.40518 | 35903 ft | 376 kts | 229° |
| 2026-05-07 05:31 | 38.05070 | -75.44478 | 35921 ft | 376 kts | 229° |
| 2026-05-07 05:32 | 38.00804 | -75.48301 | 35922 ft | 378 kts | 227° |
| 2026-05-07 05:32 | 37.96465 | -75.52026 | 35895 ft | 378 kts | 227° |
| 2026-05-07 05:33 | 37.92092 | -75.55785 | 35903 ft | 379 kts | 227° |
| 2026-05-07 05:33 | 37.87742 | -75.59556 | 35907 ft | 379 kts | 227° |
| 2026-05-07 05:34 | 37.83379 | -75.63325 | 35911 ft | 381 kts | 226° |
| 2026-05-07 05:34 | 37.78823 | -75.66858 | 35921 ft | 386 kts | 224° |
| 2026-05-07 05:35 | 37.74158 | -75.70259 | 35900 ft | 387 kts | 224° |
| 2026-05-07 05:35 | 37.69503 | -75.73693 | 35906 ft | 387 kts | 224° |
| 2026-05-07 05:36 | 37.64897 | -75.77147 | 35914 ft | 387 kts | 224° |
| 2026-05-07 05:36 | 37.60277 | -75.80619 | 35926 ft | 387 kts | 224° |
| 2026-05-07 05:37 | 37.55641 | -75.84089 | 35932 ft | 387 kts | 224° |
| 2026-05-07 05:37 | 37.51293 | -75.87875 | 35930 ft | 373 kts | 231° |
| 2026-05-07 05:38 | 37.47243 | -75.91982 | 35934 ft | 373 kts | 231° |
| 2026-05-07 05:38 | 37.43199 | -75.96070 | 35941 ft | 373 kts | 231° |
| 2026-05-07 05:39 | 37.39141 | -76.00157 | 35941 ft | 373 kts | 231° |
| 2026-05-07 05:39 | 37.35086 | -76.04234 | 35903 ft | 373 kts | 231° |
| 2026-05-07 05:40 | 37.31053 | -76.08294 | 35904 ft | 374 kts | 231° |
| 2026-05-07 05:40 | 37.26981 | -76.12387 | 35912 ft | 375 kts | 231° |
| 2026-05-07 05:41 | 37.22900 | -76.16466 | 35949 ft | 375 kts | 231° |
| 2026-05-07 05:41 | 37.18828 | -76.20536 | 35959 ft | 374 kts | 231° |
| 2026-05-07 05:42 | 37.14761 | -76.24600 | 35928 ft | 373 kts | 231° |
| 2026-05-07 05:42 | 37.10692 | -76.28670 | 35929 ft | 374 kts | 231° |
| 2026-05-07 05:43 | 37.06624 | -76.32729 | 35933 ft | 374 kts | 231° |
| 2026-05-07 05:43 | 37.02543 | -76.36789 | 35935 ft | 375 kts | 231° |
| 2026-05-07 05:44 | 36.98454 | -76.40850 | 35939 ft | 375 kts | 231° |
| 2026-05-07 05:44 | 36.94388 | -76.44881 | 35949 ft | 375 kts | 231° |
| 2026-05-07 05:45 | 36.90293 | -76.48944 | 35939 ft | 376 kts | 231° |
| 2026-05-07 05:45 | 36.86186 | -76.53008 | 35958 ft | 377 kts | 231° |
| 2026-05-07 05:46 | 36.82080 | -76.57064 | 35968 ft | 376 kts | 231° |
| 2026-05-07 05:46 | 36.77973 | -76.61120 | 35983 ft | 376 kts | 231° |
| 2026-05-07 05:47 | 36.73865 | -76.65161 | 35987 ft | 376 kts | 231° |
| 2026-05-07 05:47 | 36.69763 | -76.69198 | 35962 ft | 376 kts | 231° |
| 2026-05-07 05:48 | 36.65648 | -76.73249 | 35966 ft | 377 kts | 231° |
| 2026-05-07 05:48 | 36.61557 | -76.77273 | 35961 ft | 378 kts | 231° |
| 2026-05-07 05:49 | 36.57423 | -76.81319 | 35963 ft | 378 kts | 231° |
| 2026-05-07 05:49 | 36.53278 | -76.85369 | 35947 ft | 378 kts | 231° |
| 2026-05-07 05:50 | 36.49139 | -76.89407 | 35924 ft | 378 kts | 231° |
| 2026-05-07 05:50 | 36.44997 | -76.93445 | 35949 ft | 378 kts | 231° |
| 2026-05-07 05:51 | 36.40861 | -76.97485 | 35975 ft | 378 kts | 231° |
| 2026-05-07 05:51 | 36.36718 | -77.01517 | 35989 ft | 378 kts | 231° |
| 2026-05-07 05:52 | 36.32576 | -77.05538 | 35997 ft | 378 kts | 231° |
| 2026-05-07 05:52 | 36.28432 | -77.09561 | 35969 ft | 378 kts | 231° |
| 2026-05-07 05:53 | 36.24289 | -77.13573 | 35981 ft | 378 kts | 231° |
| 2026-05-07 05:53 | 36.20157 | -77.17578 | 35991 ft | 377 kts | 231° |
| 2026-05-07 05:54 | 36.16049 | -77.21549 | 35990 ft | 377 kts | 231° |
| 2026-05-07 05:54 | 36.11916 | -77.25529 | 35990 ft | 376 kts | 231° |
| 2026-05-07 05:55 | 36.07795 | -77.29494 | 35992 ft | 375 kts | 231° |
| 2026-05-07 05:55 | 36.03668 | -77.33466 | 35939 ft | 377 kts | 231° |
| 2026-05-07 05:56 | 35.99539 | -77.37476 | 35949 ft | 379 kts | 231° |
| 2026-05-07 05:56 | 35.95371 | -77.41520 | 35961 ft | 381 kts | 231° |
| 2026-05-07 05:57 | 35.91192 | -77.45565 | 35971 ft | 382 kts | 231° |
| 2026-05-07 05:57 | 35.86999 | -77.49607 | 35981 ft | 383 kts | 230° |
| 2026-05-07 05:58 | 35.82799 | -77.53641 | 35946 ft | 384 kts | 230° |
| 2026-05-07 05:58 | 35.78597 | -77.57675 | 35948 ft | 386 kts | 230° |
| 2026-05-07 05:59 | 35.74357 | -77.61742 | 35968 ft | 386 kts | 230° |
| 2026-05-07 05:59 | 35.70133 | -77.65792 | 35978 ft | 386 kts | 230° |
| 2026-05-07 06:00 | 35.65887 | -77.69866 | 35976 ft | 386 kts | 230° |
| 2026-05-07 06:00 | 35.61661 | -77.73919 | 35957 ft | 386 kts | 230° |
| 2026-05-07 06:01 | 35.57422 | -77.77979 | 35958 ft | 388 kts | 229° |
| 2026-05-07 06:01 | 35.53157 | -77.82045 | 36005 ft | 391 kts | 229° |
| 2026-05-07 06:02 | 35.48843 | -77.86151 | 36008 ft | 392 kts | 229° |
| 2026-05-07 06:02 | 35.44503 | -77.90280 | 36014 ft | 393 kts | 229° |
| 2026-05-07 06:03 | 35.40212 | -77.94356 | 36022 ft | 393 kts | 229° |
| 2026-05-07 06:03 | 35.38051 | -77.96408 | 35365 ft | 393 kts | 229° |
| 2026-05-07 06:03 | 35.35891 | -77.98454 | 35353 ft | 391 kts | 229° |
| 2026-05-07 06:04 | 35.31586 | -78.02522 | 35355 ft | 390 kts | 229° |
| 2026-05-07 06:04 | 35.27297 | -78.06578 | 35397 ft | 389 kts | 229° |
| 2026-05-07 06:05 | 35.23017 | -78.10631 | 35515 ft | 389 kts | 229° |
| 2026-05-07 06:05 | 35.18720 | -78.14690 | 35637 ft | 390 kts | 229° |
| 2026-05-07 06:06 | 35.14451 | -78.18717 | 35973 ft | 391 kts | 228° |
| 2026-05-07 06:06 | 35.10129 | -78.22786 | 35975 ft | 394 kts | 228° |
| 2026-05-07 06:07 | 35.05772 | -78.26885 | 35991 ft | 395 kts | 228° |
| 2026-05-07 06:07 | 35.01414 | -78.30965 | 36003 ft | 396 kts | 228° |
| 2026-05-07 06:08 | 34.97020 | -78.35073 | 36010 ft | 396 kts | 228° |
| 2026-05-07 06:08 | 34.92650 | -78.39167 | 35979 ft | 397 kts | 227° |
| 2026-05-07 06:09 | 34.88263 | -78.43277 | 35982 ft | 399 kts | 227° |
| 2026-05-07 06:09 | 34.83850 | -78.47411 | 35980 ft | 400 kts | 227° |
| 2026-05-07 06:10 | 34.79446 | -78.51518 | 35985 ft | 401 kts | 227° |
| 2026-05-07 06:10 | 34.75003 | -78.55645 | 36008 ft | 402 kts | 227° |
| 2026-05-07 06:11 | 34.70559 | -78.59772 | 36007 ft | 402 kts | 227° |
| 2026-05-07 06:11 | 34.66107 | -78.63906 | 36016 ft | 403 kts | 227° |
| 2026-05-07 06:12 | 34.61637 | -78.68052 | 36022 ft | 404 kts | 227° |
| 2026-05-07 06:12 | 34.57167 | -78.72189 | 36020 ft | 404 kts | 226° |
| 2026-05-07 06:13 | 34.52694 | -78.76321 | 35989 ft | 404 kts | 226° |
| 2026-05-07 06:13 | 34.48254 | -78.80415 | 35994 ft | 404 kts | 226° |
| 2026-05-07 06:14 | 34.43771 | -78.84528 | 35980 ft | 404 kts | 226° |
| 2026-05-07 06:14 | 34.39185 | -78.88501 | 35997 ft | 406 kts | 224° |
| 2026-05-07 06:15 | 34.34518 | -78.92366 | 35998 ft | 406 kts | 224° |
| 2026-05-07 06:15 | 34.29853 | -78.96237 | 36006 ft | 406 kts | 224° |
| 2026-05-07 06:16 | 34.25221 | -79.00131 | 36013 ft | 405 kts | 224° |
| 2026-05-07 06:16 | 34.20594 | -79.04035 | 35990 ft | 405 kts | 224° |
| 2026-05-07 06:17 | 34.15971 | -79.07917 | 36015 ft | 405 kts | 224° |
| 2026-05-07 06:17 | 34.11381 | -79.11764 | 36013 ft | 404 kts | 224° |
| 2026-05-07 06:18 | 34.06764 | -79.15624 | 36021 ft | 403 kts | 224° |
| 2026-05-07 06:18 | 34.02150 | -79.19481 | 36023 ft | 403 kts | 224° |
| 2026-05-07 06:19 | 33.98321 | -79.22683 | 36014 ft | 403 kts | 223° |
| 2026-05-07 06:19 | 33.93709 | -79.26532 | 36027 ft | 404 kts | 223° |
| 2026-05-07 06:20 | 33.89082 | -79.30387 | 36017 ft | 405 kts | 223° |
| 2026-05-07 06:20 | 33.84451 | -79.34242 | 36031 ft | 405 kts | 223° |
| 2026-05-07 06:21 | 33.79812 | -79.38101 | 36026 ft | 405 kts | 223° |
| 2026-05-07 06:21 | 33.75172 | -79.41953 | 35974 ft | 406 kts | 223° |
| 2026-05-07 06:22 | 33.70515 | -79.45814 | 35990 ft | 407 kts | 222° |
| 2026-05-07 06:22 | 33.63510 | -79.51609 | 35998 ft | 408 kts | 222° |
| 2026-05-07 06:23 | 33.58879 | -79.55440 | 36008 ft | 409 kts | 222° |
| 2026-05-07 06:23 | 33.54142 | -79.59348 | 36014 ft | 409 kts | 222° |
| 2026-05-07 06:24 | 33.49506 | -79.63175 | 35986 ft | 409 kts | 222° |
| 2026-05-07 06:24 | 33.44790 | -79.67060 | 35993 ft | 411 kts | 222° |
| 2026-05-07 06:25 | 33.40063 | -79.70938 | 35990 ft | 412 kts | 222° |
| 2026-05-07 06:25 | 33.35339 | -79.74809 | 35996 ft | 412 kts | 222° |
| 2026-05-07 06:26 | 33.30601 | -79.78688 | 36001 ft | 412 kts | 222° |
| 2026-05-07 06:26 | 33.25856 | -79.82571 | 35976 ft | 413 kts | 222° |
| 2026-05-07 06:27 | 33.21152 | -79.86413 | 35976 ft | 413 kts | 222° |
| 2026-05-07 06:27 | 33.16392 | -79.90297 | 35983 ft | 414 kts | 222° |
| 2026-05-07 06:28 | 33.11624 | -79.94180 | 35982 ft | 414 kts | 221° |
| 2026-05-07 06:28 | 33.06854 | -79.98060 | 35989 ft | 415 kts | 222° |
| 2026-05-07 06:29 | 33.02090 | -80.01935 | 36016 ft | 415 kts | 221° |
| 2026-05-07 06:29 | 32.97333 | -80.05789 | 36019 ft | 415 kts | 221° |
| 2026-05-07 06:30 | 32.92553 | -80.09655 | 36021 ft | 415 kts | 221° |
| 2026-05-07 06:30 | 32.87786 | -80.13513 | 36022 ft | 415 kts | 221° |
| 2026-05-07 06:31 | 32.83039 | -80.17358 | 36019 ft | 415 kts | 221° |
| 2026-05-07 06:31 | 32.78286 | -80.21205 | 36022 ft | 414 kts | 221° |
| 2026-05-07 06:32 | 32.73510 | -80.25056 | 36000 ft | 414 kts | 221° |
| 2026-05-07 06:32 | 32.68736 | -80.28899 | 36006 ft | 415 kts | 221° |
| 2026-05-07 06:33 | 32.63941 | -80.32755 | 36011 ft | 415 kts | 221° |
| 2026-05-07 06:33 | 32.59165 | -80.36586 | 36015 ft | 415 kts | 221° |
| 2026-05-07 06:34 | 32.54261 | -80.40270 | 36022 ft | 419 kts | 218° |
| 2026-05-07 06:34 | 32.49162 | -80.43651 | 36006 ft | 420 kts | 217° |
| 2026-05-07 06:35 | 32.44049 | -80.46975 | 36013 ft | 421 kts | 217° |
| 2026-05-07 06:35 | 32.38967 | -80.50360 | 36021 ft | 420 kts | 218° |
| 2026-05-07 06:36 | 32.33884 | -80.53798 | 36009 ft | 420 kts | 218° |
| 2026-05-07 06:36 | 32.28818 | -80.57225 | 36016 ft | 420 kts | 217° |
| 2026-05-07 06:37 | 32.23727 | -80.60645 | 36006 ft | 420 kts | 217° |
| 2026-05-07 06:37 | 32.18646 | -80.64041 | 36019 ft | 420 kts | 217° |
| 2026-05-07 06:38 | 32.13558 | -80.67444 | 36022 ft | 420 kts | 217° |
| 2026-05-07 06:38 | 32.08481 | -80.70839 | 36022 ft | 420 kts | 217° |
| 2026-05-07 06:39 | 32.03375 | -80.74252 | 36022 ft | 420 kts | 217° |
| 2026-05-07 06:39 | 31.98286 | -80.77651 | 36000 ft | 420 kts | 217° |
| 2026-05-07 06:40 | 31.93220 | -80.81027 | 35998 ft | 421 kts | 217° |
| 2026-05-07 06:40 | 31.88119 | -80.84418 | 36000 ft | 421 kts | 217° |
| 2026-05-07 06:41 | 31.83021 | -80.87798 | 36011 ft | 421 kts | 217° |
| 2026-05-07 06:41 | 31.77900 | -80.91193 | 35990 ft | 422 kts | 217° |
| 2026-05-07 06:42 | 31.72793 | -80.94584 | 35988 ft | 421 kts | 217° |
| 2026-05-07 06:42 | 31.67686 | -80.97968 | 36005 ft | 422 kts | 217° |
| 2026-05-07 06:43 | 31.62573 | -81.01349 | 36013 ft | 422 kts | 217° |
| 2026-05-07 06:43 | 31.57445 | -81.04720 | 36014 ft | 423 kts | 216° |
| 2026-05-07 06:44 | 31.52267 | -81.07934 | 36022 ft | 424 kts | 215° |
| 2026-05-07 06:44 | 31.47012 | -81.11096 | 36006 ft | 425 kts | 215° |
| 2026-05-07 06:45 | 31.41768 | -81.14274 | 36010 ft | 425 kts | 216° |
| 2026-05-07 06:45 | 31.36518 | -81.17487 | 36015 ft | 425 kts | 216° |
| 2026-05-07 06:46 | 31.31240 | -81.20651 | 36017 ft | 427 kts | 215° |
| 2026-05-07 06:46 | 31.25942 | -81.23777 | 36020 ft | 427 kts | 215° |
| 2026-05-07 06:47 | 31.20588 | -81.26827 | 35986 ft | 433 kts | 209° |
| 2026-05-07 06:47 | 31.17709 | -81.27837 | 35983 ft | 444 kts | 199° |
| 2026-05-07 06:47 | 31.14599 | -81.28267 | 35974 ft | 457 kts | 189° |
| 2026-05-07 06:48 | 31.08203 | -81.28232 | 35990 ft | 461 kts | 188° |
| 2026-05-07 06:48 | 31.01777 | -81.28213 | 36006 ft | 462 kts | 188° |
| 2026-05-07 06:49 | 30.95333 | -81.28203 | 36022 ft | 463 kts | 188° |
| 2026-05-07 06:49 | 30.88878 | -81.28197 | 36017 ft | 464 kts | 188° |
| 2026-05-07 06:50 | 30.82407 | -81.28174 | 36023 ft | 465 kts | 188° |
| 2026-05-07 06:50 | 30.75938 | -81.28148 | 36033 ft | 465 kts | 188° |
| 2026-05-07 06:51 | 30.72697 | -81.28137 | 35829 ft | 465 kts | 188° |
| 2026-05-07 06:51 | 30.69453 | -81.28128 | 35588 ft | 465 kts | 188° |
| 2026-05-07 06:51 | 30.66244 | -81.28123 | 35329 ft | 466 kts | 188° |
| 2026-05-07 06:51 | 30.63000 | -81.28121 | 34733 ft | 469 kts | 188° |
| 2026-05-07 06:52 | 30.59714 | -81.28114 | 33912 ft | 476 kts | 187° |
| 2026-05-07 06:52 | 30.56391 | -81.27993 | 33449 ft | 476 kts | 185° |
| 2026-05-07 06:52 | 30.53071 | -81.27762 | 32971 ft | 479 kts | 184° |
| 2026-05-07 06:52 | 30.49736 | -81.27463 | 32501 ft | 480 kts | 184° |
| 2026-05-07 06:53 | 30.46401 | -81.27143 | 32013 ft | 481 kts | 184° |
| 2026-05-07 06:53 | 30.43070 | -81.26835 | 31531 ft | 482 kts | 184° |
| 2026-05-07 06:53 | 30.39717 | -81.26546 | 31043 ft | 482 kts | 185° |
| 2026-05-07 06:53 | 30.36371 | -81.26283 | 30557 ft | 482 kts | 185° |
| 2026-05-07 06:54 | 30.33021 | -81.26037 | 30060 ft | 483 kts | 185° |
| 2026-05-07 06:54 | 30.29681 | -81.25804 | 29532 ft | 483 kts | 185° |
| 2026-05-07 06:54 | 30.26318 | -81.25571 | 29052 ft | 484 kts | 185° |
| 2026-05-07 06:54 | 30.22941 | -81.25330 | 28557 ft | 484 kts | 185° |
| 2026-05-07 06:55 | 30.19575 | -81.25082 | 28080 ft | 485 kts | 185° |
| 2026-05-07 06:55 | 30.16208 | -81.24826 | 27593 ft | 484 kts | 184° |
| 2026-05-07 06:55 | 30.12861 | -81.24569 | 27107 ft | 480 kts | 184° |
| 2026-05-07 06:55 | 30.09594 | -81.24316 | 26626 ft | 476 kts | 184° |
| 2026-05-07 06:56 | 30.06256 | -81.24058 | 26160 ft | 472 kts | 184° |
| 2026-05-07 06:56 | 30.02983 | -81.23809 | 25681 ft | 468 kts | 184° |
| 2026-05-07 06:56 | 29.99746 | -81.23563 | 25213 ft | 464 kts | 184° |
| 2026-05-07 06:56 | 29.96570 | -81.23324 | 24740 ft | 461 kts | 184° |
| 2026-05-07 06:57 | 29.93384 | -81.23089 | 24293 ft | 457 kts | 184° |
| 2026-05-07 06:57 | 29.90218 | -81.22856 | 23829 ft | 454 kts | 184° |
| 2026-05-07 06:57 | 29.87091 | -81.22627 | 23327 ft | 450 kts | 184° |
| 2026-05-07 06:57 | 29.83969 | -81.22396 | 22871 ft | 447 kts | 183° |
| 2026-05-07 06:58 | 29.80872 | -81.22167 | 22402 ft | 443 kts | 183° |
| 2026-05-07 06:58 | 29.77798 | -81.21939 | 21972 ft | 441 kts | 183° |
| 2026-05-07 06:58 | 29.74751 | -81.21714 | 21532 ft | 438 kts | 182° |
| 2026-05-07 06:58 | 29.71728 | -81.21493 | 21090 ft | 434 kts | 182° |
| 2026-05-07 06:59 | 29.68725 | -81.21268 | 20651 ft | 431 kts | 182° |
| 2026-05-07 06:59 | 29.65738 | -81.21024 | 20216 ft | 428 kts | 181° |
| 2026-05-07 06:59 | 29.62779 | -81.20768 | 19784 ft | 425 kts | 181° |
| 2026-05-07 06:59 | 29.59875 | -81.20511 | 19361 ft | 421 kts | 181° |
| 2026-05-07 07:00 | 29.56969 | -81.20251 | 18941 ft | 418 kts | 181° |
| 2026-05-07 07:00 | 29.54076 | -81.19990 | 18520 ft | 415 kts | 181° |
| 2026-05-07 07:00 | 29.51212 | -81.19737 | 18078 ft | 412 kts | 180° |
| 2026-05-07 07:00 | 29.48363 | -81.19490 | 17562 ft | 410 kts | 180° |
| 2026-05-07 07:01 | 29.45532 | -81.19248 | 17159 ft | 407 kts | 180° |
| 2026-05-07 07:01 | 29.42697 | -81.19012 | 16742 ft | 405 kts | 180° |
| 2026-05-07 07:01 | 29.39922 | -81.18784 | 16326 ft | 402 kts | 180° |
| 2026-05-07 07:01 | 29.37114 | -81.18549 | 15936 ft | 399 kts | 179° |
| 2026-05-07 07:02 | 29.34381 | -81.18314 | 15729 ft | 386 kts | 179° |
| 2026-05-07 07:02 | 29.31763 | -81.18082 | 15587 ft | 371 kts | 179° |
| 2026-05-07 07:02 | 29.29257 | -81.17862 | 15282 ft | 362 kts | 179° |
| 2026-05-07 07:02 | 29.26780 | -81.17648 | 15074 ft | 357 kts | 179° |
| 2026-05-07 07:03 | 29.24284 | -81.17434 | 14779 ft | 357 kts | 179° |
| 2026-05-07 07:03 | 29.21807 | -81.17221 | 14430 ft | 355 kts | 179° |
| 2026-05-07 07:03 | 29.19363 | -81.16952 | 14076 ft | 355 kts | 173° |
| 2026-05-07 07:03 | 29.16984 | -81.16200 | 13584 ft | 357 kts | 162° |
| 2026-05-07 07:04 | 29.14648 | -81.15193 | 13023 ft | 356 kts | 162° |
| 2026-05-07 07:04 | 29.12344 | -81.14199 | 12567 ft | 352 kts | 162° |
| 2026-05-07 07:04 | 29.10077 | -81.13227 | 12310 ft | 342 kts | 162° |
| 2026-05-07 07:04 | 29.07908 | -81.12299 | 12202 ft | 329 kts | 162° |
| 2026-05-07 07:05 | 29.05784 | -81.11392 | 12069 ft | 317 kts | 162° |
| 2026-05-07 07:05 | 29.03756 | -81.10535 | 11812 ft | 311 kts | 163° |
| 2026-05-07 07:05 | 29.01750 | -81.09745 | 11587 ft | 306 kts | 164° |
| 2026-05-07 07:05 | 29.00373 | -81.09226 | 11403 ft | 304 kts | 165° |
| 2026-05-07 07:06 | 28.97727 | -81.08273 | 11047 ft | 300 kts | 169° |
| 2026-05-07 07:06 | 28.95684 | -81.07934 | 10609 ft | 300 kts | 177° |
| 2026-05-07 07:06 | 28.93583 | -81.07699 | 10256 ft | 298 kts | 176° |
| 2026-05-07 07:06 | 28.91533 | -81.07464 | 9903 ft | 296 kts | 176° |
| 2026-05-07 07:07 | 28.89489 | -81.07362 | 9515 ft | 293 kts | 187° |
| 2026-05-07 07:07 | 28.87521 | -81.07872 | 9141 ft | 289 kts | 202° |
| 2026-05-07 07:07 | 28.85775 | -81.08976 | 8761 ft | 286 kts | 216° |
| 2026-05-07 07:07 | 28.84699 | -81.09842 | 8491 ft | 284 kts | 215° |
| 2026-05-07 07:08 | 28.83088 | -81.11129 | 7834 ft | 282 kts | 214° |
| 2026-05-07 07:08 | 28.81493 | -81.12398 | 7390 ft | 273 kts | 214° |
| 2026-05-07 07:08 | 28.79987 | -81.13595 | 7216 ft | 254 kts | 214° |
| 2026-05-07 07:08 | 28.78587 | -81.14709 | 7102 ft | 240 kts | 214° |
| 2026-05-07 07:09 | 28.77237 | -81.15793 | 6989 ft | 236 kts | 217° |
| 2026-05-07 07:09 | 28.76220 | -81.17242 | 6756 ft | 237 kts | 245° |
| 2026-05-07 07:09 | 28.75602 | -81.18986 | 6506 ft | 237 kts | 245° |
| 2026-05-07 07:09 | 28.74965 | -81.20714 | 6245 ft | 236 kts | 245° |
| 2026-05-07 07:10 | 28.74321 | -81.22434 | 5999 ft | 235 kts | 245° |
| 2026-05-07 07:10 | 28.73681 | -81.24134 | 5759 ft | 234 kts | 245° |
| 2026-05-07 07:10 | 28.73042 | -81.25830 | 5517 ft | 232 kts | 245° |
| 2026-05-07 07:10 | 28.72406 | -81.27518 | 5279 ft | 231 kts | 245° |
| 2026-05-07 07:11 | 28.71774 | -81.29198 | 5046 ft | 229 kts | 245° |
| 2026-05-07 07:11 | 28.71135 | -81.30845 | 4811 ft | 226 kts | 239° |
| 2026-05-07 07:11 | 28.70128 | -81.32162 | 4594 ft | 217 kts | 216° |
| 2026-05-07 07:11 | 28.68806 | -81.32853 | 4347 ft | 210 kts | 192° |
| 2026-05-07 07:12 | 28.67368 | -81.32943 | 4117 ft | 206 kts | 180° |
| 2026-05-07 07:12 | 28.65941 | -81.32926 | 4018 ft | 206 kts | 180° |
| 2026-05-07 07:12 | 28.64513 | -81.32910 | 3808 ft | 203 kts | 180° |
| 2026-05-07 07:12 | 28.63137 | -81.32895 | 3577 ft | 191 kts | 180° |
| 2026-05-07 07:13 | 28.61835 | -81.32881 | 3328 ft | 185 kts | 180° |
| 2026-05-07 07:13 | 28.60542 | -81.32867 | 3089 ft | 186 kts | 180° |
| 2026-05-07 07:13 | 28.59257 | -81.32853 | 2846 ft | 184 kts | 180° |
| 2026-05-07 07:13 | 28.57976 | -81.32839 | 2618 ft | 182 kts | 180° |
| 2026-05-07 07:14 | 28.56715 | -81.32826 | 2377 ft | 180 kts | 180° |
| 2026-05-07 07:14 | 28.55462 | -81.32812 | 2144 ft | 179 kts | 180° |
| 2026-05-07 07:14 | 28.54254 | -81.32799 | 1914 ft | 167 kts | 180° |
| 2026-05-07 07:14 | 28.53155 | -81.32787 | 1711 ft | 151 kts | 180° |
| 2026-05-07 07:15 | 28.52146 | -81.32776 | 1531 ft | 141 kts | 180° |
| 2026-05-07 07:15 | 28.51180 | -81.32766 | 1339 ft | 137 kts | 180° |
| 2026-05-07 07:15 | 28.50234 | -81.32754 | 1149 ft | 135 kts | 179° |
| 2026-05-07 07:15 | 28.49298 | -81.32746 | 979 ft | 135 kts | 179° |
| 2026-05-07 07:16 | 28.48356 | -81.32741 | 839 ft | 136 kts | 179° |
| 2026-05-07 07:16 | 28.47410 | -81.32730 | 688 ft | 137 kts | 179° |
| 2026-05-07 07:16 | 28.46459 | -81.32718 | 470 ft | 136 kts | 179° |
| 2026-05-07 07:16 | 28.45529 | -81.32703 | 291 ft | 135 kts | 178° |
| 2026-05-07 07:17 | 28.44591 | -81.32694 | 113 ft | 135 kts | 179° |
| 2026-05-07 07:17 | 28.43766 | -81.32684 | 100 ft | 99 kts | 180° |
| 2026-05-07 07:17 | 28.43222 | -81.32681 | 101 ft | 65 kts | 180° |
| 2026-05-07 07:17 | 28.42844 | -81.32676 | 102 ft | 40 kts | 178° |
| 2026-05-07 07:18 | 28.42632 | -81.32619 | 99 ft | 24 kts | 138° |
| 2026-05-07 07:18 | 28.42551 | -81.32479 | 101 ft | 20 kts | 120° |
| 2026-05-07 07:18 | 28.42482 | -81.32342 | 102 ft | 15 kts | 121° |
| 2026-05-07 07:18 | 28.42430 | -81.32242 | 105 ft | 14 kts | 120° |
| 2026-05-07 07:19 | 28.42379 | -81.32142 | 106 ft | 15 kts | 120° |
| 2026-05-07 07:19 | 28.42320 | -81.32041 | 103 ft | 10 kts | 124° |
| 2026-05-07 07:19 | 28.42255 | -81.31987 | 101 ft | 13 kts | 173° |
| 2026-05-07 07:19 | 28.42149 | -81.31986 | 100 ft | 16 kts | 179° |
| 2026-05-07 07:20 | 28.42030 | -81.31984 | 98 ft | 17 kts | 180° |
| 2026-05-07 07:20 | 28.41918 | -81.31984 | 99 ft | 15 kts | 180° |
| 2026-05-07 07:20 | 28.41817 | -81.31982 | 98 ft | 13 kts | 178° |
| 2026-05-07 07:20 | 28.41732 | -81.31981 | 99 ft | 11 kts | 180° |
| 2026-05-07 07:21 | 28.41658 | -81.31981 | 99 ft | 10 kts | 180° |
| 2026-05-07 07:21 | 28.41586 | -81.31977 | 99 ft | 10 kts | 165° |
| 2026-05-07 07:21 | 28.41541 | -81.31930 | 98 ft | 8 kts | 127° |
| 2026-05-07 07:21 | 28.41483 | -81.31911 | 98 ft | 10 kts | 178° |
| 2026-05-07 07:22 | 28.41405 | -81.31911 | 99 ft | 12 kts | 180° |
| 2026-05-07 07:22 | 28.41339 | -81.31901 | 100 ft | 7 kts | 146° |
| 2026-05-07 07:22 | 28.41330 | -81.31847 | 98 ft | 8 kts | 90° |
| 2026-05-07 07:22 | 28.41329 | -81.31775 | 96 ft | 10 kts | 90° |
| 2026-05-07 07:23 | 28.41329 | -81.31710 | 94 ft | 5 kts | 90° |
| 2026-05-07 07:23 | 28.41329 | -81.31677 | 94 ft | 3 kts | 89° |
| 2026-05-07 07:23 | 28.41329 | -81.31659 | 94 ft | 1 kts | 89° |
| 2026-05-07 07:23 | 28.41329 | -81.31654 | 94 ft | 0 kts | 89° |
| 2026-05-07 07:24 | 28.41326 | -81.31643 | 97 ft | 4 kts | 114° |
| 2026-05-07 07:24 | 28.41303 | -81.31632 | 96 ft | 3 kts | 171° |
| 2026-05-07 07:24 | 28.41276 | -81.31632 | 96 ft | 5 kts | 180° |
| 2026-05-07 07:25 | 28.41224 | -81.31632 | 95 ft | 2 kts | 179° |
| 2026-05-07 07:25 | 28.41222 | -81.31632 | 97 ft | 0 kts | 180° |
| 2026-05-07 07:29 | 28.45790 | -81.32709 | 347 ft | 135 kts | 178° |
| 2026-05-07 07:29 | 28.44850 | -81.32696 | 158 ft | 135 kts | 178° |
| 2026-05-07 07:29 | 28.43965 | -81.32688 | 100 ft | 111 kts | 178° |
| 2026-05-07 07:30 | 28.43349 | -81.32682 | 101 ft | 69 kts | 179° |
| 2026-05-07 07:30 | 28.46017 | -81.32712 | 389 ft | 11 kts | 178° |
| 2026-05-07 07:30 | 28.45055 | -81.32698 | 209 ft | 135 kts | 179° |
| 2026-05-07 07:30 | 28.44147 | -81.32693 | 102 ft | 119 kts | 179° |
| 2026-05-07 07:31 | 28.45176 | -81.32699 | 220 ft | 135 kts | 179° |
| 2026-05-07 07:31 | 28.44249 | -81.32693 | 103 ft | 123 kts | 179° |
| 2026-05-07 07:31 | 28.43527 | -81.32684 | 99 ft | 80 kts | 179° |
| 2026-05-07 07:31 | 28.43059 | -81.32679 | 100 ft | 58 kts | 179° |